sensor_id;sensor_type;location;lat;lon;timestamp;pressure;altitude;pressure_sealevel;temperature;humidity
36192;BME280;22233;42.708;23.360;2023-10-31T00:02:16;95628.41;;;14.26;60.96
36192;BME280;22233;42.708;23.360;2023-10-31T00:04:42;95626.22;;;14.19;61.25
36192;BME280;22233;42.708;23.360;2023-10-31T00:07:08;95631.47;;;14.24;60.68
36192;BME280;22233;42.708;23.360;2023-10-31T00:09:33;95603.06;;;13.95;60.74
36192;BME280;22233;42.708;23.360;2023-10-31T00:11:59;95621.72;;;14.14;60.53
36192;BME280;22233;42.708;23.360;2023-10-31T00:14:24;95625.66;;;14.05;60.70
36192;BME280;22233;42.708;23.360;2023-10-31T00:16:51;95624.31;;;13.81;61.00
36192;BME280;22233;42.708;23.360;2023-10-31T00:19:16;95630.69;;;13.94;61.76
36192;BME280;22233;42.708;23.360;2023-10-31T00:21:42;95624.25;;;13.98;61.58
36192;BME280;22233;42.708;23.360;2023-10-31T00:24:07;95605.72;;;14.04;60.91
36192;BME280;22233;42.708;23.360;2023-10-31T00:26:32;95617.00;;;14.03;60.98
36192;BME280;22233;42.708;23.360;2023-10-31T00:28:58;95622.47;;;14.03;61.10
36192;BME280;22233;42.708;23.360;2023-10-31T00:31:25;95623.59;;;14.02;60.90
36192;BME280;22233;42.708;23.360;2023-10-31T00:33:53;95608.81;;;14.03;61.29
36192;BME280;22233;42.708;23.360;2023-10-31T00:36:18;95617.13;;;14.06;60.99
36192;BME280;22233;42.708;23.360;2023-10-31T00:38:44;95609.44;;;13.99;61.16
36192;BME280;22233;42.708;23.360;2023-10-31T00:41:09;95612.09;;;13.87;60.86
36192;BME280;22233;42.708;23.360;2023-10-31T00:43:34;95609.19;;;13.92;60.80
36192;BME280;22233;42.708;23.360;2023-10-31T00:46:03;95595.78;;;13.99;61.11
36192;BME280;22233;42.708;23.360;2023-10-31T00:48:29;95611.72;;;13.97;60.20
36192;BME280;22233;42.708;23.360;2023-10-31T00:51:05;95593.44;;;13.89;60.72
36192;BME280;22233;42.708;23.360;2023-10-31T00:53:47;95595.72;;;13.87;61.00
36192;BME280;22233;42.708;23.360;2023-10-31T00:56:13;95583.06;;;13.83;60.43
36192;BME280;22233;42.708;23.360;2023-10-31T00:58:38;95588.16;;;13.84;60.49
36192;BME280;22233;42.708;23.360;2023-10-31T01:01:05;95586.00;;;13.69;60.80
36192;BME280;22233;42.708;23.360;2023-10-31T01:03:30;95590.78;;;13.81;60.51
36192;BME280;22233;42.708;23.360;2023-10-31T01:05:57;95591.41;;;13.77;60.90
36192;BME280;22233;42.708;23.360;2023-10-31T01:08:23;95584.22;;;13.73;61.10
36192;BME280;22233;42.708;23.360;2023-10-31T01:10:53;95586.00;;;13.69;61.10
36192;BME280;22233;42.708;23.360;2023-10-31T01:13:19;95582.81;;;13.67;60.66
36192;BME280;22233;42.708;23.360;2023-10-31T01:15:46;95583.06;;;13.74;60.66
36192;BME280;22233;42.708;23.360;2023-10-31T01:18:11;95557.19;;;13.50;61.34
36192;BME280;22233;42.708;23.360;2023-10-31T01:20:38;95580.28;;;13.53;61.53
36192;BME280;22233;42.708;23.360;2023-10-31T01:23:07;95563.97;;;13.44;61.78
36192;BME280;22233;42.708;23.360;2023-10-31T01:25:32;95575.56;;;13.62;61.39
36192;BME280;22233;42.708;23.360;2023-10-31T01:27:57;95554.94;;;13.52;61.02
36192;BME280;22233;42.708;23.360;2023-10-31T01:30:24;95561.56;;;13.43;61.49
36192;BME280;22233;42.708;23.360;2023-10-31T01:32:49;95565.38;;;13.50;61.18
36192;BME280;22233;42.708;23.360;2023-10-31T01:35:17;95567.97;;;13.38;61.68
36192;BME280;22233;42.708;23.360;2023-10-31T01:37:42;95564.59;;;13.41;61.80
36192;BME280;22233;42.708;23.360;2023-10-31T01:40:08;95560.09;;;13.45;61.40
36192;BME280;22233;42.708;23.360;2023-10-31T01:42:43;95548.09;;;13.29;61.66
36192;BME280;22233;42.708;23.360;2023-10-31T01:45:09;95561.44;;;13.30;61.54
36192;BME280;22233;42.708;23.360;2023-10-31T01:47:34;95551.66;;;13.29;62.14
36192;BME280;22233;42.708;23.360;2023-10-31T01:50:00;95563.03;;;13.31;60.78
36192;BME280;22233;42.708;23.360;2023-10-31T01:52:26;95562.56;;;13.29;60.77
36192;BME280;22233;42.708;23.360;2023-10-31T01:54:52;95556.31;;;13.11;61.47
36192;BME280;22233;42.708;23.360;2023-10-31T01:57:19;95552.00;;;13.02;61.76
36192;BME280;22233;42.708;23.360;2023-10-31T01:59:47;95562.91;;;13.10;60.92
36192;BME280;22233;42.708;23.360;2023-10-31T02:02:12;95562.13;;;13.01;61.51
36192;BME280;22233;42.708;23.360;2023-10-31T02:04:38;95557.44;;;13.19;60.37
36192;BME280;22233;42.708;23.360;2023-10-31T02:07:03;95552.22;;;12.96;60.73
36192;BME280;22233;42.708;23.360;2023-10-31T02:09:29;95558.28;;;12.93;61.50
36192;BME280;22233;42.708;23.360;2023-10-31T02:11:55;95541.81;;;12.90;61.56
36192;BME280;22233;42.708;23.360;2023-10-31T02:14:22;95547.22;;;12.98;60.73
36192;BME280;22233;42.708;23.360;2023-10-31T02:16:47;95545.00;;;12.92;60.51
36192;BME280;22233;42.708;23.360;2023-10-31T02:19:15;95553.03;;;12.88;60.56
36192;BME280;22233;42.708;23.360;2023-10-31T02:21:43;95536.53;;;12.67;61.45
36192;BME280;22233;42.708;23.360;2023-10-31T02:24:08;95540.38;;;12.57;61.57
36192;BME280;22233;42.708;23.360;2023-10-31T02:26:34;95530.00;;;12.51;62.51
36192;BME280;22233;42.708;23.360;2023-10-31T02:29:00;95546.50;;;12.28;63.53
36192;BME280;22233;42.708;23.360;2023-10-31T02:31:26;95541.88;;;12.20;63.54
36192;BME280;22233;42.708;23.360;2023-10-31T02:33:52;95532.41;;;12.17;63.44
36192;BME280;22233;42.708;23.360;2023-10-31T02:36:18;95542.81;;;12.24;63.00
36192;BME280;22233;42.708;23.360;2023-10-31T02:38:43;95543.13;;;12.23;64.00
36192;BME280;22233;42.708;23.360;2023-10-31T02:41:09;95534.47;;;12.29;63.17
36192;BME280;22233;42.708;23.360;2023-10-31T02:43:34;95539.28;;;12.32;63.77
36192;BME280;22233;42.708;23.360;2023-10-31T02:46:00;95535.31;;;12.30;64.24
36192;BME280;22233;42.708;23.360;2023-10-31T02:48:26;95538.81;;;12.13;65.07
36192;BME280;22233;42.708;23.360;2023-10-31T02:50:51;95528.41;;;12.06;64.69
36192;BME280;22233;42.708;23.360;2023-10-31T02:53:20;95536.00;;;11.78;65.75
36192;BME280;22233;42.708;23.360;2023-10-31T02:55:46;95538.31;;;11.93;66.17
36192;BME280;22233;42.708;23.360;2023-10-31T02:58:11;95550.34;;;12.10;65.03
36192;BME280;22233;42.708;23.360;2023-10-31T03:00:37;95526.47;;;11.98;65.76
36192;BME280;22233;42.708;23.360;2023-10-31T03:03:02;95549.16;;;11.85;65.49
36192;BME280;22233;42.708;23.360;2023-10-31T03:05:28;95551.88;;;11.85;66.42
36192;BME280;22233;42.708;23.360;2023-10-31T03:07:53;95548.06;;;11.37;67.61
36192;BME280;22233;42.708;23.360;2023-10-31T03:10:20;95554.19;;;11.51;67.52
36192;BME280;22233;42.708;23.360;2023-10-31T03:12:45;95544.19;;;11.78;65.93
36192;BME280;22233;42.708;23.360;2023-10-31T03:15:11;95533.72;;;11.63;65.99
36192;BME280;22233;42.708;23.360;2023-10-31T03:17:36;95548.06;;;11.37;66.48
36192;BME280;22233;42.708;23.360;2023-10-31T03:20:02;95550.06;;;11.63;66.35
36192;BME280;22233;42.708;23.360;2023-10-31T03:22:27;95543.81;;;11.53;66.17
36192;BME280;22233;42.708;23.360;2023-10-31T03:24:53;95536.38;;;11.36;66.39
36192;BME280;22233;42.708;23.360;2023-10-31T03:27:18;95543.44;;;11.37;66.07
36192;BME280;22233;42.708;23.360;2023-10-31T03:29:44;95536.56;;;11.40;65.16
36192;BME280;22233;42.708;23.360;2023-10-31T03:32:09;95526.50;;;11.49;65.21
36192;BME280;22233;42.708;23.360;2023-10-31T03:34:35;95520.22;;;11.31;64.79
36192;BME280;22233;42.708;23.360;2023-10-31T03:37:00;95539.19;;;11.23;66.50
36192;BME280;22233;42.708;23.360;2023-10-31T03:39:26;95513.72;;;11.10;65.10
36192;BME280;22233;42.708;23.360;2023-10-31T03:41:51;95506.94;;;10.98;66.14
36192;BME280;22233;42.708;23.360;2023-10-31T03:44:16;95511.81;;;10.79;66.52
36192;BME280;22233;42.708;23.360;2023-10-31T03:46:42;95499.16;;;10.74;66.75
36192;BME280;22233;42.708;23.360;2023-10-31T03:49:07;95527.00;;;10.49;68.46
36192;BME280;22233;42.708;23.360;2023-10-31T03:51:33;95517.06;;;9.71;70.77
36192;BME280;22233;42.708;23.360;2023-10-31T03:53:59;95518.66;;;9.86;70.83
36192;BME280;22233;42.708;23.360;2023-10-31T03:56:25;95526.81;;;10.09;69.76
36192;BME280;22233;42.708;23.360;2023-10-31T03:58:50;95544.16;;;9.85;69.96
36192;BME280;22233;42.708;23.360;2023-10-31T04:01:15;95531.03;;;9.65;71.82
36192;BME280;22233;42.708;23.360;2023-10-31T04:03:41;95526.50;;;9.74;71.02
36192;BME280;22233;42.708;23.360;2023-10-31T04:06:06;95525.34;;;9.25;72.93
36192;BME280;22233;42.708;23.360;2023-10-31T04:08:32;95528.34;;;9.23;72.79
36192;BME280;22233;42.708;23.360;2023-10-31T04:10:57;95532.97;;;9.50;72.10
36192;BME280;22233;42.708;23.360;2023-10-31T04:13:22;95532.16;;;9.50;71.34
36192;BME280;22233;42.708;23.360;2023-10-31T04:15:48;95529.41;;;9.64;71.70
36192;BME280;22233;42.708;23.360;2023-10-31T04:18:13;95528.00;;;9.80;70.85
36192;BME280;22233;42.708;23.360;2023-10-31T04:20:39;95526.28;;;9.84;70.45
36192;BME280;22233;42.708;23.360;2023-10-31T04:23:05;95506.56;;;9.92;69.94
36192;BME280;22233;42.708;23.360;2023-10-31T04:25:31;95506.72;;;9.96;70.62
36192;BME280;22233;42.708;23.360;2023-10-31T04:27:56;95507.81;;;10.09;69.30
36192;BME280;22233;42.708;23.360;2023-10-31T04:30:23;95499.13;;;10.20;69.30
36192;BME280;22233;42.708;23.360;2023-10-31T04:32:48;95494.38;;;10.26;69.05
36192;BME280;22233;42.708;23.360;2023-10-31T04:35:14;95486.22;;;10.04;69.80
36192;BME280;22233;42.708;23.360;2023-10-31T04:37:39;95496.53;;;10.15;69.86
36192;BME280;22233;42.708;23.360;2023-10-31T04:40:05;95495.97;;;10.27;69.46
36192;BME280;22233;42.708;23.360;2023-10-31T04:42:32;95500.81;;;10.30;69.81
36192;BME280;22233;42.708;23.360;2023-10-31T04:44:58;95513.47;;;10.35;69.20
36192;BME280;22233;42.708;23.360;2023-10-31T04:47:24;95510.03;;;10.07;70.76
36192;BME280;22233;42.708;23.360;2023-10-31T04:49:50;95499.03;;;9.89;70.98
36192;BME280;22233;42.708;23.360;2023-10-31T04:52:16;95531.75;;;10.07;70.56
36192;BME280;22233;42.708;23.360;2023-10-31T04:54:42;95493.75;;;9.70;71.34
36192;BME280;22233;42.708;23.360;2023-10-31T04:57:07;95520.88;;;10.07;70.12
36192;BME280;22233;42.708;23.360;2023-10-31T04:59:32;95535.84;;;9.68;71.94
36192;BME280;22233;42.708;23.360;2023-10-31T05:01:58;95532.31;;;9.81;71.08
36192;BME280;22233;42.708;23.360;2023-10-31T05:04:23;95537.97;;;9.57;71.61
36192;BME280;22233;42.708;23.360;2023-10-31T05:06:49;95517.97;;;9.67;70.73
36192;BME280;22233;42.708;23.360;2023-10-31T05:09:14;95534.28;;;9.89;70.18
36192;BME280;22233;42.708;23.360;2023-10-31T05:11:40;95537.63;;;9.86;70.46
36192;BME280;22233;42.708;23.360;2023-10-31T05:14:08;95537.81;;;10.26;69.10
36192;BME280;22233;42.708;23.360;2023-10-31T05:16:43;95529.03;;;10.29;68.70
36192;BME280;22233;42.708;23.360;2023-10-31T05:19:09;95519.31;;;10.28;68.91
36192;BME280;22233;42.708;23.360;2023-10-31T05:21:35;95527.09;;;10.44;67.62
36192;BME280;22233;42.708;23.360;2023-10-31T05:24:01;95520.34;;;10.18;68.22
36192;BME280;22233;42.708;23.360;2023-10-31T05:26:27;95514.28;;;10.22;68.21
36192;BME280;22233;42.708;23.360;2023-10-31T05:28:54;95523.38;;;10.17;68.26
36192;BME280;22233;42.708;23.360;2023-10-31T05:31:20;95535.38;;;10.02;67.92
36192;BME280;22233;42.708;23.360;2023-10-31T05:33:45;95545.06;;;9.80;67.82
36192;BME280;22233;42.708;23.360;2023-10-31T05:36:18;95532.03;;;9.69;68.75
36192;BME280;22233;42.708;23.360;2023-10-31T05:38:44;95550.44;;;9.44;69.77
36192;BME280;22233;42.708;23.360;2023-10-31T05:41:09;95543.38;;;9.71;68.07
36192;BME280;22233;42.708;23.360;2023-10-31T05:43:34;95549.03;;;9.47;69.15
36192;BME280;22233;42.708;23.360;2023-10-31T05:46:00;95540.41;;;9.31;70.59
36192;BME280;22233;42.708;23.360;2023-10-31T05:48:25;95546.53;;;9.23;69.72
36192;BME280;22233;42.708;23.360;2023-10-31T05:50:50;95546.03;;;9.48;68.42
36192;BME280;22233;42.708;23.360;2023-10-31T05:53:16;95539.47;;;9.63;67.85
36192;BME280;22233;42.708;23.360;2023-10-31T05:55:41;95542.31;;;9.58;67.83
36192;BME280;22233;42.708;23.360;2023-10-31T05:58:07;95563.28;;;9.52;68.18
36192;BME280;22233;42.708;23.360;2023-10-31T06:00:32;95556.97;;;9.29;69.11
36192;BME280;22233;42.708;23.360;2023-10-31T06:02:57;95574.91;;;9.11;70.44
36192;BME280;22233;42.708;23.360;2023-10-31T06:05:23;95565.88;;;9.02;70.68
36192;BME280;22233;42.708;23.360;2023-10-31T06:07:48;95583.19;;;8.73;72.04
36192;BME280;22233;42.708;23.360;2023-10-31T06:10:13;95576.06;;;8.91;71.46
36192;BME280;22233;42.708;23.360;2023-10-31T06:12:39;95562.69;;;9.14;70.39
36192;BME280;22233;42.708;23.360;2023-10-31T06:15:05;95565.47;;;8.95;71.77
36192;BME280;22233;42.708;23.360;2023-10-31T06:17:30;95546.81;;;9.21;69.98
36192;BME280;22233;42.708;23.360;2023-10-31T06:19:58;95555.66;;;9.68;69.33
36192;BME280;22233;42.708;23.360;2023-10-31T06:22:24;95557.06;;;9.52;71.43
36192;BME280;22233;42.708;23.360;2023-10-31T06:24:50;95569.25;;;10.05;70.40
36192;BME280;22233;42.708;23.360;2023-10-31T06:27:15;95555.78;;;10.36;68.45
36192;BME280;22233;42.708;23.360;2023-10-31T06:29:40;95568.22;;;10.73;68.04
36192;BME280;22233;42.708;23.360;2023-10-31T06:32:06;95579.06;;;10.73;68.98
36192;BME280;22233;42.708;23.360;2023-10-31T06:34:31;95579.13;;;11.05;67.57
36192;BME280;22233;42.708;23.360;2023-10-31T06:36:56;95568.59;;;11.12;68.17
36192;BME280;22233;42.708;23.360;2023-10-31T06:39:22;95579.09;;;11.36;67.00
36192;BME280;22233;42.708;23.360;2023-10-31T06:41:48;95570.69;;;11.15;68.38
36192;BME280;22233;42.708;23.360;2023-10-31T06:44:13;95563.88;;;10.95;70.44
36192;BME280;22233;42.708;23.360;2023-10-31T06:46:39;95565.69;;;11.48;68.12
36192;BME280;22233;42.708;23.360;2023-10-31T06:49:04;95557.63;;;11.74;66.83
36192;BME280;22233;42.708;23.360;2023-10-31T06:51:30;95539.25;;;11.89;66.53
36192;BME280;22233;42.708;23.360;2023-10-31T06:53:55;95560.28;;;12.23;66.09
36192;BME280;22233;42.708;23.360;2023-10-31T06:56:20;95550.19;;;12.41;65.18
36192;BME280;22233;42.708;23.360;2023-10-31T06:58:46;95529.03;;;12.64;63.54
36192;BME280;22233;42.708;23.360;2023-10-31T07:01:11;95552.06;;;12.93;63.29
36192;BME280;22233;42.708;23.360;2023-10-31T07:03:39;95546.09;;;13.08;62.99
36192;BME280;22233;42.708;23.360;2023-10-31T07:06:04;95542.53;;;13.08;62.63
36192;BME280;22233;42.708;23.360;2023-10-31T07:08:29;95547.47;;;13.32;62.56
36192;BME280;22233;42.708;23.360;2023-10-31T07:10:55;95546.34;;;13.33;61.98
36192;BME280;22233;42.708;23.360;2023-10-31T07:13:20;95558.97;;;13.46;62.08
36192;BME280;22233;42.708;23.360;2023-10-31T07:15:46;95543.28;;;13.73;61.77
36192;BME280;22233;42.708;23.360;2023-10-31T07:18:12;95539.03;;;13.54;62.33
36192;BME280;22233;42.708;23.360;2023-10-31T07:20:38;95545.84;;;13.99;61.39
36192;BME280;22233;42.708;23.360;2023-10-31T07:23:03;95546.47;;;14.05;60.94
36192;BME280;22233;42.708;23.360;2023-10-31T07:25:28;95536.66;;;14.25;60.65
36192;BME280;22233;42.708;23.360;2023-10-31T07:27:54;95528.81;;;14.23;60.39
36192;BME280;22233;42.708;23.360;2023-10-31T07:30:19;95532.59;;;14.31;60.21
36192;BME280;22233;42.708;23.360;2023-10-31T07:32:45;95530.31;;;14.12;60.94
36192;BME280;22233;42.708;23.360;2023-10-31T07:35:10;95537.13;;;14.48;60.37
36192;BME280;22233;42.708;23.360;2023-10-31T07:37:35;95541.59;;;14.73;60.07
36192;BME280;22233;42.708;23.360;2023-10-31T07:40:01;95529.03;;;14.72;59.31
36192;BME280;22233;42.708;23.360;2023-10-31T07:42:29;95540.69;;;14.82;59.15
36192;BME280;22233;42.708;23.360;2023-10-31T07:44:54;95528.19;;;14.93;59.28
36192;BME280;22233;42.708;23.360;2023-10-31T07:47:20;95507.47;;;15.04;58.59
36192;BME280;22233;42.708;23.360;2023-10-31T07:49:45;95509.78;;;15.14;58.47
36192;BME280;22233;42.708;23.360;2023-10-31T07:52:10;95513.00;;;15.41;58.33
36192;BME280;22233;42.708;23.360;2023-10-31T07:54:39;95500.78;;;15.38;58.20
36192;BME280;22233;42.708;23.360;2023-10-31T07:57:04;95486.31;;;15.38;57.77
36192;BME280;22233;42.708;23.360;2023-10-31T07:59:33;95487.00;;;15.60;58.10
36192;BME280;22233;42.708;23.360;2023-10-31T08:01:58;95505.00;;;15.97;57.63
36192;BME280;22233;42.708;23.360;2023-10-31T08:04:24;95477.50;;;16.06;57.54
36192;BME280;22233;42.708;23.360;2023-10-31T08:06:50;95491.31;;;15.97;57.96
36192;BME280;22233;42.708;23.360;2023-10-31T08:09:34;95482.47;;;16.16;57.40
36192;BME280;22233;42.708;23.360;2023-10-31T08:12:02;95487.09;;;16.41;56.83
36192;BME280;22233;42.708;23.360;2023-10-31T08:14:28;95498.66;;;16.62;56.08
36192;BME280;22233;42.708;23.360;2023-10-31T08:16:53;95483.09;;;16.66;56.17
36192;BME280;22233;42.708;23.360;2023-10-31T08:19:18;95474.00;;;16.78;56.04
36192;BME280;22233;42.708;23.360;2023-10-31T08:21:44;95483.09;;;16.94;55.86
36192;BME280;22233;42.708;23.360;2023-10-31T08:24:09;95455.03;;;16.85;56.03
36192;BME280;22233;42.708;23.360;2023-10-31T08:26:35;95468.13;;;17.24;56.42
36192;BME280;22233;42.708;23.360;2023-10-31T08:29:01;95465.38;;;17.40;57.01
36192;BME280;22233;42.708;23.360;2023-10-31T08:31:26;95459.78;;;17.52;56.42
36192;BME280;22233;42.708;23.360;2023-10-31T08:33:51;95458.47;;;17.46;56.02
36192;BME280;22233;42.708;23.360;2023-10-31T08:36:17;95454.22;;;17.48;56.42
36192;BME280;22233;42.708;23.360;2023-10-31T08:38:42;95419.00;;;17.34;55.76
36192;BME280;22233;42.708;23.360;2023-10-31T08:41:08;95449.00;;;17.59;55.54
36192;BME280;22233;42.708;23.360;2023-10-31T08:43:33;95443.91;;;17.93;54.55
36192;BME280;22233;42.708;23.360;2023-10-31T08:45:58;95415.97;;;18.10;54.04
36192;BME280;22233;42.708;23.360;2023-10-31T08:48:24;95431.69;;;18.29;53.25
36192;BME280;22233;42.708;23.360;2023-10-31T08:50:50;95428.78;;;18.42;53.84
36192;BME280;22233;42.708;23.360;2023-10-31T08:53:15;95418.00;;;18.33;53.54
36192;BME280;22233;42.708;23.360;2023-10-31T08:55:41;95402.50;;;18.25;53.88
36192;BME280;22233;42.708;23.360;2023-10-31T08:58:10;95418.13;;;18.60;53.54
36192;BME280;22233;42.708;23.360;2023-10-31T09:00:36;95407.41;;;18.54;53.71
36192;BME280;22233;42.708;23.360;2023-10-31T09:03:01;95401.66;;;18.83;53.33
36192;BME280;22233;42.708;23.360;2023-10-31T09:05:26;95408.69;;;18.80;53.20
36192;BME280;22233;42.708;23.360;2023-10-31T09:07:52;95395.88;;;18.68;53.47
36192;BME280;22233;42.708;23.360;2023-10-31T09:10:17;95386.56;;;18.96;53.08
36192;BME280;22233;42.708;23.360;2023-10-31T09:12:43;95386.56;;;18.96;52.83
36192;BME280;22233;42.708;23.360;2023-10-31T09:15:08;95376.69;;;18.95;52.11
36192;BME280;22233;42.708;23.360;2023-10-31T09:17:34;95374.56;;;19.08;51.85
36192;BME280;22233;42.708;23.360;2023-10-31T09:20:00;95380.31;;;19.22;51.87
36192;BME280;22233;42.708;23.360;2023-10-31T09:22:25;95369.50;;;19.36;51.11
36192;BME280;22233;42.708;23.360;2023-10-31T09:24:51;95365.84;;;19.29;51.29
36192;BME280;22233;42.708;23.360;2023-10-31T09:27:16;95334.34;;;19.26;51.05
36192;BME280;22233;42.708;23.360;2023-10-31T09:29:41;95340.59;;;19.50;50.91
36192;BME280;22233;42.708;23.360;2023-10-31T09:32:07;95345.94;;;19.69;50.55
36192;BME280;22233;42.708;23.360;2023-10-31T09:34:32;95333.94;;;19.81;50.26
36192;BME280;22233;42.708;23.360;2023-10-31T09:36:58;95340.28;;;19.85;50.15
36192;BME280;22233;42.708;23.360;2023-10-31T09:39:24;95333.75;;;19.97;49.34
36192;BME280;22233;42.708;23.360;2023-10-31T09:41:49;95323.50;;;19.98;49.40
36192;BME280;22233;42.708;23.360;2023-10-31T09:44:14;95292.00;;;19.99;49.32
36192;BME280;22233;42.708;23.360;2023-10-31T09:46:40;95307.47;;;20.07;49.14
36192;BME280;22233;42.708;23.360;2023-10-31T09:49:06;95296.91;;;20.16;48.95
36192;BME280;22233;42.708;23.360;2023-10-31T09:51:33;95309.78;;;20.42;48.75
36192;BME280;22233;42.708;23.360;2023-10-31T09:53:59;95301.63;;;20.53;48.22
36192;BME280;22233;42.708;23.360;2023-10-31T09:56:27;95286.38;;;20.63;47.92
36192;BME280;22233;42.708;23.360;2023-10-31T09:59:03;95293.59;;;20.78;47.46
36192;BME280;22233;42.708;23.360;2023-10-31T10:01:29;95291.72;;;20.89;47.74
36192;BME280;22233;42.708;23.360;2023-10-31T10:03:55;95283.13;;;21.02;47.01
36192;BME280;22233;42.708;23.360;2023-10-31T10:06:21;95269.25;;;20.91;46.90
36192;BME280;22233;42.708;23.360;2023-10-31T10:08:48;95261.56;;;21.22;46.30
36192;BME280;22233;42.708;23.360;2023-10-31T10:11:14;95263.59;;;21.32;46.26
36192;BME280;22233;42.708;23.360;2023-10-31T10:13:40;95257.41;;;21.49;46.00
36192;BME280;22233;42.708;23.360;2023-10-31T10:16:05;95249.44;;;21.41;45.58
36192;BME280;22233;42.708;23.360;2023-10-31T10:18:32;95238.06;;;21.49;45.26
36192;BME280;22233;42.708;23.360;2023-10-31T10:21:03;95236.03;;;21.39;44.90
36192;BME280;22233;42.708;23.360;2023-10-31T10:23:29;95218.31;;;21.47;45.77
36192;BME280;22233;42.708;23.360;2023-10-31T10:25:56;95237.81;;;21.87;44.97
36192;BME280;22233;42.708;23.360;2023-10-31T10:28:22;95233.50;;;21.97;44.24
36192;BME280;22233;42.708;23.360;2023-10-31T10:30:49;95232.69;;;21.92;44.21
36192;BME280;22233;42.708;23.360;2023-10-31T10:33:16;95215.69;;;21.90;44.16
36192;BME280;22233;42.708;23.360;2023-10-31T10:35:42;95222.03;;;22.05;43.56
36192;BME280;22233;42.708;23.360;2023-10-31T10:38:13;95222.84;;;22.06;42.63
36192;BME280;22233;42.708;23.360;2023-10-31T10:40:43;95226.81;;;22.23;42.76
36192;BME280;22233;42.708;23.360;2023-10-31T10:43:22;95217.38;;;22.27;42.46
36192;BME280;22233;42.708;23.360;2023-10-31T10:45:56;95208.31;;;22.30;42.64
36192;BME280;22233;42.708;23.360;2023-10-31T10:48:22;95184.97;;;22.35;42.52
36192;BME280;22233;42.708;23.360;2023-10-31T10:50:54;95186.53;;;22.58;42.16
36192;BME280;22233;42.708;23.360;2023-10-31T10:53:23;95189.31;;;22.68;42.06
36192;BME280;22233;42.708;23.360;2023-10-31T10:55:55;95172.69;;;22.83;41.50
36192;BME280;22233;42.708;23.360;2023-10-31T10:58:32;95167.53;;;23.03;41.28
36192;BME280;22233;42.708;23.360;2023-10-31T11:01:00;95168.69;;;23.16;40.27
36192;BME280;22233;42.708;23.360;2023-10-31T11:03:29;95152.03;;;23.23;39.80
36192;BME280;22233;42.708;23.360;2023-10-31T11:05:55;95161.88;;;23.39;38.64
36192;BME280;22233;42.708;23.360;2023-10-31T11:08:20;95163.44;;;23.40;38.12
36192;BME280;22233;42.708;23.360;2023-10-31T11:10:48;95161.44;;;23.51;38.15
36192;BME280;22233;42.708;23.360;2023-10-31T11:13:15;95156.22;;;23.64;38.22
36192;BME280;22233;42.708;23.360;2023-10-31T11:15:41;95147.47;;;23.72;37.25
36192;BME280;22233;42.708;23.360;2023-10-31T11:18:07;95136.03;;;23.60;36.93
36192;BME280;22233;42.708;23.360;2023-10-31T11:20:34;95129.34;;;23.50;37.52
36192;BME280;22233;42.708;23.360;2023-10-31T11:23:01;95103.22;;;23.51;37.70
36192;BME280;22233;42.708;23.360;2023-10-31T11:25:31;95134.09;;;23.57;37.54
36192;BME280;22233;42.708;23.360;2023-10-31T11:27:57;95107.94;;;23.54;37.41
36192;BME280;22233;42.708;23.360;2023-10-31T11:30:35;95109.47;;;23.66;36.64
36192;BME280;22233;42.708;23.360;2023-10-31T11:33:01;95098.34;;;23.69;36.77
36192;BME280;22233;42.708;23.360;2023-10-31T11:35:32;95106.19;;;23.89;36.96
36192;BME280;22233;42.708;23.360;2023-10-31T11:38:03;95082.03;;;23.86;36.85
36192;BME280;22233;42.708;23.360;2023-10-31T11:40:29;95088.41;;;23.76;36.35
36192;BME280;22233;42.708;23.360;2023-10-31T11:43:01;95091.31;;;23.54;37.56
36192;BME280;22233;42.708;23.360;2023-10-31T11:45:42;95082.88;;;23.76;37.07
36192;BME280;22233;42.708;23.360;2023-10-31T11:48:13;95086.31;;;23.94;37.34
36192;BME280;22233;42.708;23.360;2023-10-31T11:50:39;95084.75;;;23.93;37.34
36192;BME280;22233;42.708;23.360;2023-10-31T11:53:09;95080.25;;;24.10;37.83
36192;BME280;22233;42.708;23.360;2023-10-31T11:55:40;95075.94;;;24.05;38.03
36192;BME280;22233;42.708;23.360;2023-10-31T11:58:22;95065.88;;;23.70;38.59
36192;BME280;22233;42.708;23.360;2023-10-31T12:00:50;95052.00;;;23.77;38.23
36192;BME280;22233;42.708;23.360;2023-10-31T12:03:20;95067.09;;;23.62;39.57
36192;BME280;22233;42.708;23.360;2023-10-31T12:05:57;95070.31;;;23.57;39.79
36192;BME280;22233;42.708;23.360;2023-10-31T12:08:37;95071.28;;;23.91;39.47
36192;BME280;22233;42.708;23.360;2023-10-31T12:13:33;95046.31;;;23.95;38.84
36192;BME280;22233;42.708;23.360;2023-10-31T12:15:59;95036.88;;;23.85;38.71
36192;BME280;22233;42.708;23.360;2023-10-31T12:18:29;95034.88;;;23.86;38.99
36192;BME280;22233;42.708;23.360;2023-10-31T12:20:54;95036.38;;;23.98;39.02
36192;BME280;22233;42.708;23.360;2023-10-31T12:23:20;95038.25;;;24.08;39.21
36192;BME280;22233;42.708;23.360;2023-10-31T12:25:49;95030.09;;;23.90;39.28
36192;BME280;22233;42.708;23.360;2023-10-31T12:28:19;95041.25;;;23.83;38.70
36192;BME280;22233;42.708;23.360;2023-10-31T12:30:49;95042.19;;;24.14;38.64
36192;BME280;22233;42.708;23.360;2023-10-31T12:33:16;95034.69;;;24.11;38.50
36192;BME280;22233;42.708;23.360;2023-10-31T12:35:43;95033.94;;;24.07;38.28
36192;BME280;22233;42.708;23.360;2023-10-31T12:38:12;95034.53;;;23.77;38.77
36192;BME280;22233;42.708;23.360;2023-10-31T12:43:03;95008.72;;;23.90;38.22
36192;BME280;22233;42.708;23.360;2023-10-31T12:45:29;95007.91;;;23.90;38.07
36192;BME280;22233;42.708;23.360;2023-10-31T12:48:04;95003.63;;;23.82;38.25
36192;BME280;22233;42.708;23.360;2023-10-31T12:50:31;94979.00;;;23.87;38.19
36192;BME280;22233;42.708;23.360;2023-10-31T12:52:57;94989.94;;;24.05;38.18